createdAt,value
2017-12-28T00:00:44.110Z,4.10
2017-12-28T00:03:11.585Z,4.00
2017-12-28T00:05:39.098Z,4.20
2017-12-28T00:08:06.577Z,4.30
2017-12-28T00:10:34.093Z,4.20
2017-12-28T00:13:01.574Z,4.20
2017-12-28T00:15:29.085Z,4.20
2017-12-28T00:17:56.596Z,4.20
2017-12-28T00:20:24.888Z,4.20
2017-12-28T00:22:52.316Z,4.20
2017-12-28T00:25:19.785Z,4.20
2017-12-28T00:27:47.256Z,4.20
2017-12-28T00:30:14.718Z,4.20
2017-12-28T00:32:42.171Z,4.10
2017-12-28T00:35:09.910Z,4.10
2017-12-28T00:37:37.344Z,4.00
2017-12-28T00:40:04.827Z,3.90
2017-12-28T00:42:32.256Z,3.80
2017-12-28T00:44:59.931Z,3.70
2017-12-28T00:47:27.452Z,3.70
2017-12-28T00:49:54.909Z,3.60
2017-12-28T00:52:26.069Z,3.60
2017-12-28T00:54:53.545Z,3.70
2017-12-28T00:57:21.001Z,3.70
2017-12-28T00:59:48.471Z,3.80
2017-12-28T01:02:15.895Z,3.90
2017-12-28T01:04:43.370Z,3.90
2017-12-28T01:07:10.973Z,3.90
2017-12-28T01:09:39.204Z,4.00
2017-12-28T01:12:06.653Z,4.00
2017-12-28T01:14:34.679Z,4.00
2017-12-28T01:17:02.502Z,3.90
2017-12-28T01:19:29.952Z,4.00
2017-12-28T01:22:01.403Z,3.90
2017-12-28T01:24:28.872Z,3.90
2017-12-28T01:26:56.330Z,3.90
2017-12-28T01:29:23.763Z,3.80
2017-12-28T01:31:51.539Z,3.70
2017-12-28T01:34:19.051Z,3.70
2017-12-28T01:36:49.816Z,3.70
2017-12-28T01:39:25.160Z,3.70
2017-12-28T01:41:52.629Z,3.60
2017-12-28T01:44:20.851Z,3.60
2017-12-28T01:46:48.332Z,3.60
2017-12-28T01:49:15.847Z,3.60
2017-12-28T01:51:59.964Z,3.50
2017-12-28T01:54:27.452Z,3.50
2017-12-28T01:56:54.888Z,3.50
2017-12-28T01:59:22.355Z,3.50
2017-12-28T02:01:49.803Z,3.40
2017-12-28T02:04:17.302Z,3.40
2017-12-28T02:06:44.832Z,3.40
2017-12-28T02:09:12.272Z,3.40
2017-12-28T02:11:39.710Z,3.40
2017-12-28T02:14:07.184Z,3.40
2017-12-28T02:16:34.640Z,3.50
2017-12-28T02:19:02.100Z,3.50
2017-12-28T02:21:29.561Z,3.60
2017-12-28T02:23:57.021Z,3.50
2017-12-28T02:26:24.682Z,3.50
2017-12-28T02:28:52.141Z,3.40
2017-12-28T02:31:19.572Z,3.40
2017-12-28T02:33:47.032Z,3.50
2017-12-28T02:36:14.583Z,3.50
2017-12-28T02:38:53.122Z,3.50
2017-12-28T02:41:20.563Z,3.60
2017-12-28T02:43:48.028Z,3.70
2017-12-28T02:46:15.485Z,3.70
2017-12-28T02:48:42.953Z,3.60
2017-12-28T02:51:10.701Z,3.60
2017-12-28T02:53:42.936Z,3.70
2017-12-28T02:56:10.373Z,3.60
2017-12-28T02:58:41.045Z,3.60
2017-12-28T03:01:08.492Z,3.60
2017-12-28T03:03:35.917Z,3.60
2017-12-28T03:06:03.366Z,3.50
2017-12-28T03:08:34.747Z,3.50
2017-12-28T03:11:02.340Z,3.50
2017-12-28T03:13:29.777Z,3.60
2017-12-28T03:15:57.255Z,3.60
2017-12-28T03:18:24.713Z,3.60
2017-12-28T03:20:52.163Z,3.50
2017-12-28T03:23:22.693Z,3.50
2017-12-28T03:25:50.163Z,3.50
2017-12-28T03:28:17.665Z,3.50
2017-12-28T03:30:45.251Z,3.50
2017-12-28T03:33:12.724Z,3.50
2017-12-28T03:35:40.165Z,3.60
2017-12-28T03:38:10.914Z,3.60
2017-12-28T03:40:38.371Z,3.60
2017-12-28T03:43:05.803Z,3.70
2017-12-28T03:45:33.401Z,3.70
2017-12-28T03:48:01.459Z,3.60
2017-12-28T03:50:28.951Z,3.60
2017-12-28T03:52:56.418Z,3.60
2017-12-28T03:55:23.932Z,3.60
2017-12-28T03:57:51.383Z,3.60
2017-12-28T04:00:18.899Z,3.60
2017-12-28T04:02:46.353Z,3.60
2017-12-28T04:05:13.863Z,3.60
2017-12-28T04:07:41.320Z,3.50
2017-12-28T04:10:08.808Z,3.60
2017-12-28T04:12:37.071Z,3.60
2017-12-28T04:15:04.525Z,3.60
2017-12-28T04:17:32.050Z,3.60
2017-12-28T04:19:59.500Z,3.60
2017-12-28T04:22:27.044Z,3.60
2017-12-28T04:24:58.004Z,3.60
2017-12-28T04:27:25.443Z,3.50
2017-12-28T04:29:52.932Z,3.50
2017-12-28T04:32:20.363Z,3.50
2017-12-28T04:34:47.832Z,3.60
2017-12-28T04:37:15.291Z,3.50
2017-12-28T04:39:42.720Z,3.50
2017-12-28T04:42:10.211Z,3.50
2017-12-28T04:44:37.648Z,3.40
2017-12-28T04:47:05.076Z,3.40
2017-12-28T04:49:32.548Z,3.40
2017-12-28T04:52:00.038Z,3.30
2017-12-28T04:54:31.425Z,3.30
2017-12-28T04:56:58.936Z,3.30
2017-12-28T04:59:26.599Z,3.30
2017-12-28T05:01:54.112Z,3.30
2017-12-28T05:04:21.840Z,3.30
2017-12-28T05:06:49.334Z,3.30
2017-12-28T05:09:16.808Z,3.30
2017-12-28T05:11:44.475Z,3.20
2017-12-28T05:14:11.944Z,3.20
2017-12-28T05:16:39.519Z,3.20
2017-12-28T05:19:06.964Z,3.20
2017-12-28T05:21:34.497Z,3.20
2017-12-28T05:24:02.062Z,3.20
2017-12-28T05:26:29.496Z,3.10
2017-12-28T05:28:57.707Z,3.10
2017-12-28T05:31:25.718Z,3.00
2017-12-28T05:33:53.160Z,3.00
2017-12-28T05:36:20.709Z,3.00
2017-12-28T05:38:48.171Z,3.00
2017-12-28T05:41:15.623Z,3.10
2017-12-28T05:43:43.112Z,3.10
2017-12-28T05:46:10.580Z,3.00
2017-12-28T05:48:38.016Z,3.10
2017-12-28T05:51:05.540Z,3.10
2017-12-28T05:53:33.339Z,3.10
2017-12-28T05:56:03.979Z,3.00
2017-12-28T05:58:32.228Z,3.10
2017-12-28T06:00:59.896Z,3.10
2017-12-28T06:03:27.334Z,3.10
2017-12-28T06:05:54.808Z,3.20
2017-12-28T06:08:22.268Z,3.20
2017-12-28T06:10:49.713Z,3.20
2017-12-28T06:13:21.513Z,3.30
2017-12-28T06:15:48.972Z,3.30
2017-12-28T06:18:16.668Z,3.30
2017-12-28T06:20:44.089Z,3.30
2017-12-28T06:23:11.568Z,3.30
2017-12-28T06:25:39.004Z,3.30
2017-12-28T06:28:06.454Z,3.40
2017-12-28T06:30:33.989Z,3.40
2017-12-28T06:33:01.476Z,3.40
2017-12-28T06:35:28.939Z,3.40
2017-12-28T06:37:56.388Z,3.40
2017-12-28T06:40:23.835Z,3.30
2017-12-28T06:42:55.870Z,3.30
2017-12-28T06:45:23.328Z,3.20
2017-12-28T06:47:50.908Z,3.20
2017-12-28T06:50:18.368Z,3.30
2017-12-28T06:52:45.860Z,3.30
2017-12-28T06:55:14.084Z,3.20
2017-12-28T06:57:41.556Z,3.20
2017-12-28T07:00:09.013Z,3.10
2017-12-28T07:02:36.458Z,3.10
2017-12-28T07:05:03.932Z,3.10
2017-12-28T07:07:31.382Z,3.00
2017-12-28T07:09:58.877Z,2.90
2017-12-28T07:12:26.318Z,2.90
2017-12-28T07:14:53.803Z,2.90
2017-12-28T07:17:21.319Z,3.00
2017-12-28T07:19:48.784Z,2.80
2017-12-28T07:22:17.002Z,2.70
2017-12-28T07:24:44.454Z,2.70
2017-12-28T07:27:15.643Z,2.80
2017-12-28T07:29:47.107Z,2.90
2017-12-28T07:32:14.854Z,2.80
2017-12-28T07:34:42.328Z,2.70
2017-12-28T07:37:09.808Z,2.70
2017-12-28T07:39:37.323Z,2.70
2017-12-28T07:42:04.771Z,2.60
2017-12-28T07:44:36.141Z,2.50
2017-12-28T07:47:03.591Z,2.50
2017-12-28T07:49:31.050Z,2.60
2017-12-28T07:51:58.564Z,2.60
2017-12-28T07:54:26.028Z,2.50
2017-12-28T07:56:53.660Z,2.60
2017-12-28T07:59:21.100Z,2.60
2017-12-28T08:01:48.574Z,2.50
2017-12-28T08:04:16.024Z,2.60
2017-12-28T08:06:43.460Z,2.50
2017-12-28T08:09:10.928Z,2.50
2017-12-28T08:11:38.387Z,2.60
2017-12-28T08:14:05.835Z,2.60
2017-12-28T08:16:33.293Z,2.60
2017-12-28T08:19:00.751Z,2.60
2017-12-28T08:21:28.225Z,2.60
2017-12-28T08:23:55.680Z,2.70
2017-12-28T08:26:23.142Z,2.60
2017-12-28T08:28:53.902Z,2.60
2017-12-28T08:31:21.423Z,2.70
2017-12-28T08:33:48.887Z,2.80
2017-12-28T08:36:16.316Z,2.70
2017-12-28T08:38:43.797Z,2.80
2017-12-28T08:41:11.228Z,2.80
2017-12-28T08:43:38.660Z,2.80
2017-12-28T08:46:06.241Z,2.80
2017-12-28T08:48:33.712Z,2.80
2017-12-28T08:51:01.148Z,2.80
2017-12-28T08:53:28.660Z,2.90
2017-12-28T08:55:56.087Z,2.90
2017-12-28T08:58:23.528Z,3.00
2017-12-28T09:00:50.995Z,3.00
2017-12-28T09:03:18.506Z,2.90
2017-12-28T09:05:45.937Z,3.00
2017-12-28T09:08:13.399Z,3.00
2017-12-28T09:10:40.836Z,3.00
2017-12-28T09:13:08.296Z,3.00
2017-12-28T09:15:35.743Z,3.10
2017-12-28T09:18:03.200Z,3.10
2017-12-28T09:20:30.645Z,3.20
2017-12-28T09:22:58.109Z,3.20
2017-12-28T09:25:25.541Z,3.30
2017-12-28T09:27:53.044Z,3.40
2017-12-28T09:30:20.534Z,3.40
2017-12-28T09:32:47.990Z,3.50
2017-12-28T09:35:15.448Z,3.60
2017-12-28T09:37:42.901Z,3.60
2017-12-28T09:40:10.372Z,3.60
2017-12-28T09:42:37.815Z,3.60
2017-12-28T09:45:05.287Z,3.70
2017-12-28T09:47:32.731Z,3.60
2017-12-28T09:50:00.171Z,3.50
2017-12-28T09:52:27.903Z,3.50
2017-12-28T09:54:55.369Z,3.50
2017-12-28T09:57:22.913Z,3.60
2017-12-28T09:59:53.347Z,3.40
2017-12-28T10:02:20.828Z,3.50
2017-12-28T10:04:48.323Z,3.40
2017-12-28T10:07:15.796Z,3.30
2017-12-28T10:09:43.271Z,3.30
2017-12-28T10:12:10.748Z,3.30
2017-12-28T10:14:38.962Z,3.20
2017-12-28T10:17:06.445Z,3.20
2017-12-28T10:19:33.892Z,3.10
2017-12-28T10:22:01.376Z,3.10
2017-12-28T10:24:28.831Z,3.10
2017-12-28T10:26:56.283Z,3.10
2017-12-28T10:29:25.539Z,3.10
2017-12-28T10:31:52.976Z,3.10
2017-12-28T10:34:20.412Z,3.10
2017-12-28T10:36:47.873Z,3.10
2017-12-28T10:39:15.407Z,3.10
2017-12-28T10:41:42.866Z,3.00
2017-12-28T10:44:10.391Z,3.10
2017-12-28T10:46:37.953Z,3.20
2017-12-28T10:49:05.427Z,3.20
2017-12-28T10:51:32.911Z,3.20
2017-12-28T10:54:01.113Z,3.30
2017-12-28T10:56:28.539Z,3.30
2017-12-28T10:58:55.983Z,3.40
2017-12-28T11:01:23.436Z,3.50
2017-12-28T11:03:50.903Z,3.40
2017-12-28T11:06:18.351Z,3.40
2017-12-28T11:08:45.839Z,3.60
2017-12-28T11:11:13.333Z,3.60
2017-12-28T11:13:40.796Z,3.60
2017-12-28T11:16:12.807Z,3.70
2017-12-28T11:18:40.256Z,3.90
2017-12-28T11:21:07.871Z,3.80
2017-12-28T11:23:35.335Z,3.80
2017-12-28T11:26:02.783Z,3.80
2017-12-28T11:28:30.216Z,3.80
2017-12-28T11:30:58.753Z,3.70
2017-12-28T11:33:26.191Z,3.70
2017-12-28T11:35:53.638Z,3.80
2017-12-28T11:38:21.301Z,3.90
2017-12-28T11:40:48.758Z,3.90
2017-12-28T11:43:16.215Z,3.90
2017-12-28T11:45:43.673Z,3.90
2017-12-28T11:48:14.485Z,4.00
2017-12-28T11:50:42.035Z,4.00
2017-12-28T11:53:09.502Z,4.00
2017-12-28T11:55:42.870Z,4.00
2017-12-28T11:58:10.326Z,4.00
2017-12-28T12:00:43.528Z,4.10
2017-12-28T12:03:15.685Z,4.10
2017-12-28T12:05:46.919Z,4.10
2017-12-28T12:08:20.875Z,4.30
2017-12-28T12:10:51.791Z,4.20
2017-12-28T12:13:19.248Z,4.30
2017-12-28T12:15:46.679Z,4.30
2017-12-28T12:18:18.855Z,4.40
2017-12-28T12:20:46.289Z,4.40
2017-12-28T12:23:14.096Z,4.30
2017-12-28T12:25:41.685Z,4.30
2017-12-28T12:28:09.142Z,4.40
2017-12-28T12:30:36.742Z,4.40
2017-12-28T12:33:04.168Z,4.40
2017-12-28T12:35:32.032Z,4.40
2017-12-28T12:37:59.470Z,4.40
2017-12-28T12:40:26.926Z,4.30
2017-12-28T12:42:54.408Z,4.30
2017-12-28T12:45:22.678Z,4.40
2017-12-28T12:48:00.953Z,4.40
2017-12-28T12:50:28.392Z,4.40
2017-12-28T12:52:55.912Z,4.30
2017-12-28T12:55:23.355Z,4.30
2017-12-28T12:57:50.796Z,4.20
2017-12-28T13:00:18.441Z,4.20
2017-12-28T13:02:45.868Z,4.10
2017-12-28T13:05:16.430Z,4.00
2017-12-28T13:07:44.648Z,3.90
2017-12-28T13:10:12.199Z,3.90
2017-12-28T13:12:39.680Z,3.90
2017-12-28T13:15:07.144Z,3.80
2017-12-28T13:17:38.717Z,3.80
2017-12-28T13:20:06.180Z,3.80
2017-12-28T13:22:33.657Z,3.70
2017-12-28T13:25:01.157Z,3.80
2017-12-28T13:27:28.605Z,3.90
2017-12-28T13:29:56.056Z,4.00
2017-12-28T13:32:23.512Z,4.00
2017-12-28T13:34:50.971Z,4.00
2017-12-28T13:37:22.060Z,4.20
2017-12-28T13:39:49.520Z,4.20
2017-12-28T13:42:16.989Z,4.20
2017-12-28T13:44:44.424Z,4.10
2017-12-28T13:47:11.895Z,4.10
2017-12-28T13:49:47.020Z,4.20
2017-12-28T13:52:14.506Z,4.20
2017-12-28T13:54:41.956Z,4.20
2017-12-28T13:57:09.499Z,4.20
2017-12-28T13:59:36.926Z,4.20
2017-12-28T14:02:04.369Z,4.20
2017-12-28T14:04:35.436Z,4.20
2017-12-28T14:07:02.984Z,4.10
2017-12-28T14:09:30.516Z,4.00
2017-12-28T14:11:57.971Z,4.10
2017-12-28T14:14:25.417Z,4.10
2017-12-28T14:16:52.840Z,4.10
2017-12-28T14:19:20.651Z,4.00
2017-12-28T14:21:48.109Z,4.00
2017-12-28T14:24:15.563Z,3.90
2017-12-28T14:26:43.004Z,3.80
2017-12-28T14:29:11.228Z,3.80
2017-12-28T14:31:38.719Z,3.80
2017-12-28T14:34:13.216Z,3.80
2017-12-28T14:36:40.644Z,3.90
2017-12-28T14:39:08.156Z,3.90
2017-12-28T14:41:35.616Z,3.90
2017-12-28T14:44:03.107Z,3.80
2017-12-28T14:46:30.544Z,3.80
2017-12-28T14:49:01.332Z,3.70
2017-12-28T14:51:28.832Z,3.70
2017-12-28T14:53:56.352Z,3.70
2017-12-28T14:56:23.833Z,3.70
2017-12-28T14:58:52.103Z,3.70
2017-12-28T15:01:19.606Z,3.70
2017-12-28T15:03:47.063Z,3.70
2017-12-28T15:06:14.620Z,3.60
2017-12-28T15:08:42.132Z,3.60
2017-12-28T15:11:09.580Z,3.70
2017-12-28T15:13:37.060Z,3.70
2017-12-28T15:16:04.504Z,3.70
2017-12-28T15:18:31.960Z,3.70
2017-12-28T15:20:59.436Z,3.70
2017-12-28T15:23:26.961Z,3.50
2017-12-28T15:25:54.432Z,3.50
2017-12-28T15:28:22.020Z,3.50
2017-12-28T15:30:49.471Z,3.50
2017-12-28T15:33:17.694Z,3.30
2017-12-28T15:35:48.236Z,3.30
2017-12-28T15:38:15.664Z,3.10
2017-12-28T15:40:43.137Z,3.00
2017-12-28T15:43:10.571Z,2.70
2017-12-28T15:45:38.089Z,2.60
2017-12-28T15:48:05.556Z,2.40
2017-12-28T15:50:36.119Z,2.20
2017-12-28T15:53:03.551Z,2.10
2017-12-28T15:55:31.003Z,2.00
2017-12-28T15:57:58.435Z,2.00
2017-12-28T16:00:25.896Z,1.90
2017-12-28T16:02:53.382Z,1.70
2017-12-28T16:05:21.211Z,1.70
2017-12-28T16:07:48.877Z,1.60
2017-12-28T16:10:16.361Z,1.60
2017-12-28T16:12:43.952Z,1.70
2017-12-28T16:15:11.419Z,1.70
2017-12-28T16:17:38.844Z,1.60
2017-12-28T16:20:06.332Z,1.60
2017-12-28T16:22:37.060Z,1.60
2017-12-28T16:25:04.764Z,1.50
2017-12-28T16:27:32.212Z,1.50
2017-12-28T16:29:59.651Z,1.50
2017-12-28T16:32:27.125Z,1.50
2017-12-28T16:34:54.592Z,1.50
2017-12-28T16:37:22.094Z,1.50
2017-12-28T16:39:49.697Z,1.50
2017-12-28T16:42:17.119Z,1.40
2017-12-28T16:44:44.634Z,1.40
2017-12-28T16:47:12.185Z,1.40
2017-12-28T16:49:39.628Z,1.30
2017-12-28T16:52:07.118Z,1.40
2017-12-28T16:54:38.241Z,1.30
2017-12-28T16:57:05.743Z,1.30
2017-12-28T16:59:33.167Z,1.30
2017-12-28T17:02:00.673Z,1.30
2017-12-28T17:04:28.171Z,1.20
2017-12-28T17:07:00.452Z,1.20
2017-12-28T17:09:31.093Z,1.10
2017-12-28T17:11:59.325Z,1.10
2017-12-28T17:14:26.796Z,1.10
2017-12-28T17:16:54.298Z,1.20
2017-12-28T17:19:21.731Z,1.20
2017-12-28T17:21:53.161Z,1.30
2017-12-28T17:24:20.613Z,1.40
2017-12-28T17:26:48.102Z,1.50
2017-12-28T17:29:15.649Z,1.50
2017-12-28T17:31:43.152Z,1.50
2017-12-28T17:34:10.648Z,1.50
2017-12-28T17:36:38.113Z,1.40
2017-12-28T17:39:05.601Z,1.40
2017-12-28T17:41:33.115Z,1.30
2017-12-28T17:44:00.682Z,1.30
2017-12-28T17:46:28.175Z,1.20
2017-12-28T17:48:56.500Z,1.20
2017-12-28T17:51:23.998Z,1.20
2017-12-28T17:53:51.489Z,1.20
2017-12-28T17:56:22.771Z,1.20
2017-12-28T17:58:50.245Z,1.20
2017-12-28T18:01:18.066Z,1.10
2017-12-28T18:03:45.651Z,1.10
2017-12-28T18:06:13.118Z,1.10
2017-12-28T18:08:45.302Z,1.20
2017-12-28T18:11:12.814Z,1.10
2017-12-28T18:13:40.562Z,1.20
2017-12-28T18:16:07.983Z,1.30
2017-12-28T18:18:35.494Z,1.30
2017-12-28T18:21:02.924Z,1.40
2017-12-28T18:23:34.298Z,1.30
2017-12-28T18:26:01.730Z,1.30
2017-12-28T18:28:29.293Z,1.40
2017-12-28T18:30:56.737Z,1.40
2017-12-28T18:33:24.232Z,1.40
2017-12-28T18:35:51.721Z,1.40
2017-12-28T18:38:19.214Z,1.30
2017-12-28T18:40:47.433Z,1.40
2017-12-28T18:43:14.951Z,1.40
2017-12-28T18:45:42.491Z,1.50
2017-12-28T18:48:10.746Z,1.60
2017-12-28T18:50:38.252Z,1.60
2017-12-28T18:53:09.092Z,1.70
2017-12-28T18:55:39.980Z,1.70
2017-12-28T18:58:07.428Z,1.70
2017-12-28T19:00:34.959Z,1.80
2017-12-28T19:03:02.424Z,1.80
2017-12-28T19:05:29.957Z,1.80
2017-12-28T19:07:57.458Z,1.90
2017-12-28T19:10:30.200Z,2.00
2017-12-28T19:12:57.631Z,1.90
2017-12-28T19:15:25.151Z,2.00
2017-12-28T19:17:52.626Z,2.00
2017-12-28T19:20:20.089Z,2.10
2017-12-28T19:22:47.636Z,2.10
2017-12-28T19:25:15.131Z,2.10
2017-12-28T19:27:42.599Z,2.10
2017-12-28T19:30:10.129Z,2.10
2017-12-28T19:32:37.603Z,2.20
2017-12-28T19:35:05.131Z,2.20
2017-12-28T19:37:32.688Z,2.10
2017-12-28T19:40:04.299Z,2.00
2017-12-28T19:42:31.806Z,1.90
2017-12-28T19:44:59.287Z,1.90
2017-12-28T19:47:27.529Z,1.70
2017-12-28T19:49:55.062Z,1.60
2017-12-28T19:52:22.535Z,1.60
2017-12-28T19:54:54.179Z,1.60
2017-12-28T19:57:22.790Z,1.50
2017-12-28T19:59:50.436Z,1.50
2017-12-28T20:02:18.059Z,1.40
2017-12-28T20:04:45.558Z,1.30
2017-12-28T20:07:13.057Z,1.30
2017-12-28T20:09:40.729Z,1.40
2017-12-28T20:12:08.281Z,1.40
2017-12-28T20:14:35.961Z,1.40
2017-12-28T20:17:03.634Z,1.50
2017-12-28T20:19:31.162Z,1.60
2017-12-28T20:21:58.678Z,1.70
2017-12-28T20:24:29.703Z,1.80
2017-12-28T20:26:57.218Z,1.80
2017-12-28T20:29:24.689Z,1.80
2017-12-28T20:31:52.262Z,1.70
2017-12-28T20:34:19.791Z,1.70
2017-12-28T20:36:48.059Z,1.80
2017-12-28T20:39:15.591Z,1.80
2017-12-28T20:41:43.089Z,1.90
2017-12-28T20:44:11.352Z,1.90
2017-12-28T20:46:38.861Z,1.90
2017-12-28T20:49:06.518Z,1.90
2017-12-28T20:51:34.012Z,1.90
2017-12-28T20:54:01.545Z,1.90
2017-12-28T20:56:29.021Z,1.90
2017-12-28T20:58:56.503Z,2.00
2017-12-28T21:01:24.792Z,2.10
2017-12-28T21:03:52.310Z,2.00
2017-12-28T21:06:19.950Z,2.00
2017-12-28T21:08:47.455Z,2.00
2017-12-28T21:11:14.934Z,2.00
2017-12-28T21:13:42.444Z,2.00
2017-12-28T21:16:09.943Z,2.00
2017-12-28T21:18:38.219Z,1.90
2017-12-28T21:21:05.815Z,1.90
2017-12-28T21:23:33.306Z,1.80
2017-12-28T21:26:05.228Z,1.80
2017-12-28T21:28:32.720Z,1.80
2017-12-28T21:31:00.252Z,1.70
2017-12-28T21:33:27.926Z,1.60
2017-12-28T21:35:55.501Z,1.60
2017-12-28T21:38:23.538Z,1.60
2017-12-28T21:40:55.158Z,1.60
2017-12-28T21:43:22.864Z,1.60
2017-12-28T21:45:50.371Z,1.60
2017-12-28T21:48:17.847Z,1.50
2017-12-28T21:50:45.351Z,1.50
2017-12-28T21:53:12.879Z,1.50
2017-12-28T21:55:40.508Z,1.50
2017-12-28T21:58:07.989Z,1.50
2017-12-28T22:00:35.531Z,1.60
2017-12-28T22:03:03.804Z,1.50
2017-12-28T22:05:31.325Z,1.50
2017-12-28T22:07:58.898Z,1.50
2017-12-28T22:10:26.373Z,1.50
2017-12-28T22:12:57.943Z,1.50
2017-12-28T22:15:25.424Z,1.40
2017-12-28T22:17:52.895Z,1.50
2017-12-28T22:20:21.475Z,1.50
2017-12-28T22:22:48.988Z,1.50
2017-12-28T22:25:16.549Z,1.50
2017-12-28T22:27:47.938Z,1.40
2017-12-28T22:30:15.438Z,1.40
2017-12-28T22:32:42.948Z,1.40
2017-12-28T22:35:10.512Z,1.30
2017-12-28T22:37:38.163Z,1.20
2017-12-28T22:40:05.663Z,1.00
2017-12-28T22:42:33.195Z,0.90
2017-12-28T22:45:07.787Z,0.80
2017-12-28T22:47:35.298Z,0.70
2017-12-28T22:50:02.782Z,0.70
2017-12-28T22:52:30.291Z,0.70
2017-12-28T22:54:57.781Z,0.70
2017-12-28T22:57:29.997Z,0.60
2017-12-28T22:59:57.642Z,0.50
2017-12-28T23:02:25.177Z,0.40
2017-12-28T23:04:52.682Z,0.30
2017-12-28T23:07:20.171Z,0.20
2017-12-28T23:09:47.725Z,0.20
2017-12-28T23:12:15.223Z,0.10
2017-12-28T23:14:42.774Z,0.20
2017-12-28T23:17:10.244Z,0.20
2017-12-28T23:19:37.771Z,0.30
2017-12-28T23:22:05.255Z,0.30
2017-12-28T23:24:32.783Z,0.30
2017-12-28T23:27:00.254Z,0.40
2017-12-28T23:29:35.409Z,0.40
2017-12-28T23:32:02.950Z,0.30
2017-12-28T23:34:30.421Z,0.30
2017-12-28T23:36:57.951Z,0.30
2017-12-28T23:39:25.451Z,0.30
2017-12-28T23:41:53.752Z,0.20
2017-12-28T23:44:21.335Z,0.20
2017-12-28T23:46:48.784Z,0.10
2017-12-28T23:49:16.287Z,0.10
2017-12-28T23:51:43.794Z,0.10
2017-12-28T23:54:11.321Z,0.10
2017-12-28T23:56:38.909Z,0.00
2017-12-28T23:59:06.405Z,-0.10
